Time;durP1;ratioP1;P1;durP2;ratioP2;P2;SDS_P1;SDS_P2;PMS_P1;PMS_P2;Temp;Humidity;BMP_temperature;BMP_pressure;BME280_temperature;BME280_humidity;BME280_pressure;Samples;Min_cycle;Max_cycle;Signal;HPM_P1;HPM_P2
2023/03/08 00:01:17;;;;;;;7.95;3.47;;;;;;;;;;2074554;28;20463;-79
2023/03/08 00:02:36;;;;;;;4.05;3.63;;;;;;;;;;2079010;28;20021;-80
2023/03/08 00:03:57;;;;;;;5.43;3.70;;;;;;;;;;2083609;28;20136;-80
2023/03/08 00:05:16;;;;;;;7.00;3.70;;;;;;;;;;2080179;28;20018;-80
2023/03/08 00:06:35;;;;;;;5.07;3.42;;;;;;;;;;2073203;28;20585;-79
2023/03/08 00:07:54;;;;;;;4.63;3.70;;;;;;;;;;2087034;28;20037;-80
2023/03/08 00:09:13;;;;;;;5.65;3.67;;;;;;;;;;2086335;28;20018;-81
2023/03/08 00:10:33;;;;;;;7.43;3.40;;;;;;;;;;2079302;28;20014;-81
2023/03/08 00:11:52;;;;;;;4.95;3.28;;;;;;;;;;2085937;28;20053;-80
2023/03/08 00:13:11;;;;;;;6.90;3.28;;;;;;;;;;2089816;28;20275;-81
2023/03/08 00:14:30;;;;;;;4.30;2.78;;;;;;;;;;2080287;28;20060;-79
2023/03/08 00:15:49;;;;;;;4.95;3.08;;;;;;;;;;2073776;28;20109;-80
2023/03/08 00:17:08;;;;;;;5.82;3.33;;;;;;;;;;2080029;28;20050;-79
2023/03/08 00:18:28;;;;;;;3.75;3.03;;;;;;;;;;2085893;28;20029;-80
2023/03/08 00:19:46;;;;;;;4.25;2.65;;;;;;;;;;2078716;28;20082;-80
2023/03/08 00:21:07;;;;;;;3.30;3.00;;;;;;;;;;2075775;28;20081;-80
2023/03/08 00:22:26;;;;;;;3.22;2.92;;;;;;;;;;2074441;28;20033;-79
2023/03/08 00:23:45;;;;;;;4.97;3.05;;;;;;;;;;2078845;28;20025;-80
2023/03/08 00:25:04;;;;;;;4.40;3.15;;;;;;;;;;2083376;28;20033;-79
2023/03/08 00:26:23;;;;;;;6.00;3.05;;;;;;;;;;2083989;28;20033;-80
2023/03/08 00:27:42;;;;;;;6.10;2.83;;;;;;;;;;2080267;28;20018;-79
2023/03/08 00:29:01;;;;;;;4.93;2.50;;;;;;;;;;2071607;28;20030;-80
2023/03/08 00:30:20;;;;;;;2.70;2.28;;;;;;;;;;2073550;28;20025;-78
2023/03/08 00:31:39;;;;;;;2.67;2.22;;;;;;;;;;2071817;28;20434;-79
2023/03/08 00:32:58;;;;;;;3.92;3.28;;;;;;;;;;2071335;28;20092;-78
2023/03/08 00:34:17;;;;;;;4.47;2.72;;;;;;;;;;2073541;28;20029;-79
2023/03/08 00:35:36;;;;;;;4.47;2.70;;;;;;;;;;2070772;28;20033;-80
2023/03/08 00:36:55;;;;;;;3.70;2.72;;;;;;;;;;2077614;28;20033;-79
2023/03/08 00:38:14;;;;;;;5.13;2.53;;;;;;;;;;2080668;28;20037;-80
2023/03/08 00:39:33;;;;;;;4.28;2.13;;;;;;;;;;2079908;28;20029;-79
2023/03/08 00:40:52;;;;;;;2.55;2.35;;;;;;;;;;2078913;28;20457;-78
2023/03/08 00:42:11;;;;;;;3.10;2.50;;;;;;;;;;2073241;28;20049;-79
2023/03/08 00:43:30;;;;;;;9.18;2.63;;;;;;;;;;2078530;28;20060;-78
2023/03/08 00:44:50;;;;;;;4.15;2.35;;;;;;;;;;2072279;28;20511;-78
2023/03/08 00:46:09;;;;;;;3.20;2.30;;;;;;;;;;2067911;28;20069;-78
2023/03/08 00:47:28;;;;;;;5.82;2.15;;;;;;;;;;2077157;28;20022;-80
2023/03/08 00:48:47;;;;;;;3.75;2.42;;;;;;;;;;2072260;28;20033;-80
2023/03/08 00:50:06;;;;;;;2.78;2.38;;;;;;;;;;2070408;28;20495;-79
2023/03/08 00:51:25;;;;;;;2.60;2.17;;;;;;;;;;2077641;28;20437;-78
2023/03/08 00:52:44;;;;;;;4.93;2.17;;;;;;;;;;2081051;28;20033;-78
2023/03/08 00:54:04;;;;;;;5.00;2.40;;;;;;;;;;2073033;28;20414;-80
2023/03/08 00:55:23;;;;;;;4.15;2.30;;;;;;;;;;2071871;28;20057;-78
2023/03/08 00:56:42;;;;;;;3.42;2.20;;;;;;;;;;2071105;28;20018;-79
2023/03/08 00:58:01;;;;;;;3.47;2.08;;;;;;;;;;2070847;28;20027;-79
2023/03/08 00:59:20;;;;;;;5.70;2.25;;;;;;;;;;2077480;28;20021;-80
2023/03/08 01:00:39;;;;;;;3.65;2.35;;;;;;;;;;2073804;28;20033;-79
2023/03/08 01:01:59;;;;;;;2.38;1.70;;;;;;;;;;2077295;28;20057;-79
2023/03/08 01:03:18;;;;;;;2.90;2.10;;;;;;;;;;2072555;28;20041;-80
2023/03/08 01:04:37;;;;;;;3.58;2.05;;;;;;;;;;2077457;28;20033;-79
2023/03/08 01:05:57;;;;;;;2.50;2.30;;;;;;;;;;2080168;28;20053;-80
2023/03/08 01:07:17;;;;;;;1.80;1.70;;;;;;;;;;2079038;28;20025;-79
2023/03/08 01:08:36;;;;;;;3.85;2.15;;;;;;;;;;2074036;28;20120;-79
2023/03/08 01:09:55;;;;;;;2.25;2.00;;;;;;;;;;2077339;28;20359;-79
2023/03/08 01:11:16;;;;;;;2.08;1.80;;;;;;;;;;2072917;28;20033;-80
2023/03/08 01:12:35;;;;;;;2.85;1.92;;;;;;;;;;2071154;28;21243;-79
2023/03/08 01:13:54;;;;;;;2.17;1.92;;;;;;;;;;2069224;28;20038;-80
2023/03/08 01:15:14;;;;;;;1.95;1.85;;;;;;;;;;2074882;28;20026;-79
2023/03/08 01:16:33;;;;;;;2.92;2.20;;;;;;;;;;2080368;28;20025;-79
2023/03/08 01:17:52;;;;;;;3.60;1.90;;;;;;;;;;2068863;28;20022;-79
2023/03/08 01:19:11;;;;;;;2.17;1.90;;;;;;;;;;2068728;28;20634;-79
2023/03/08 01:20:30;;;;;;;2.58;1.92;;;;;;;;;;2076538;28;20112;-79
2023/03/08 01:21:48;;;;;;;2.45;1.90;;;;;;;;;;2072174;28;20507;-79
2023/03/08 01:23:08;;;;;;;2.45;2.10;;;;;;;;;;2069996;28;20507;-80
2023/03/08 01:24:27;;;;;;;5.43;2.10;;;;;;;;;;2078287;28;20037;-78
2023/03/08 01:25:47;;;;;;;2.35;1.90;;;;;;;;;;2080335;28;20033;-79
2023/03/08 01:27:06;;;;;;;2.92;1.90;;;;;;;;;;2075310;28;20049;-80
2023/03/08 01:28:25;;;;;;;2.10;1.77;;;;;;;;;;2077725;28;20494;-79
2023/03/08 01:29:44;;;;;;;3.85;2.28;;;;;;;;;;2071911;28;20793;-79
2023/03/08 01:31:04;;;;;;;6.45;2.47;;;;;;;;;;2067334;28;20029;-78
2023/03/08 01:32:23;;;;;;;4.35;2.33;;;;;;;;;;2075022;28;20022;-79
2023/03/08 01:33:43;;;;;;;2.38;1.95;;;;;;;;;;2080211;28;20033;-79
2023/03/08 01:35:04;;;;;;;4.32;2.25;;;;;;;;;;2070907;28;20484;-79
2023/03/08 01:36:24;;;;;;;5.85;2.30;;;;;;;;;;2069392;28;20034;-79
2023/03/08 01:37:42;;;;;;;3.28;1.92;;;;;;;;;;2078084;28;20107;-79
2023/03/08 01:39:02;;;;;;;1.95;1.85;;;;;;;;;;2080306;28;20391;-79
2023/03/08 01:40:21;;;;;;;3.30;2.17;;;;;;;;;;2076730;28;20033;-80
2023/03/08 01:41:40;;;;;;;2.08;1.80;;;;;;;;;;2079150;28;20041;-79
2023/03/08 01:43:10;;;;;;;2.20;2.00;;;;;;;;;;2074012;28;20433;-79
2023/03/08 01:44:47;;;;;;;2.65;2.13;;;;;;;;;;2075980;28;20026;-79
2023/03/08 01:46:14;;;;;;;4.82;2.30;;;;;;;;;;2079608;28;20041;-80
2023/03/08 01:47:37;;;;;;;3.55;2.42;;;;;;;;;;2080266;28;20030;-79
2023/03/08 01:49:02;;;;;;;2.42;2.22;;;;;;;;;;2077993;28;20061;-80
2023/03/08 01:50:21;;;;;;;4.55;2.30;;;;;;;;;;2078873;28;20093;-79
2023/03/08 01:51:46;;;;;;;3.55;2.28;;;;;;;;;;2071547;28;20414;-79
2023/03/08 01:53:05;;;;;;;2.40;2.10;;;;;;;;;;2078670;28;20041;-79
2023/03/08 01:54:32;;;;;;;2.05;1.92;;;;;;;;;;2077184;28;20025;-80
2023/03/08 01:55:52;;;;;;;2.88;2.15;;;;;;;;;;2072181;28;20034;-81
2023/03/08 01:57:15;;;;;;;5.25;2.75;;;;;;;;;;2076530;28;20034;-79
2023/03/08 01:58:34;;;;;;;4.22;2.28;;;;;;;;;;2084150;28;20021;-80
2023/03/08 01:59:55;;;;;;;2.20;2.00;;;;;;;;;;2073184;28;20030;-81
2023/03/08 02:01:14;;;;;;;3.65;2.10;;;;;;;;;;2068856;28;20077;-79
2023/03/08 02:02:53;;;;;;;5.38;2.47;;;;;;;;;;2072140;28;20041;-79
2023/03/08 02:04:12;;;;;;;2.47;2.28;;;;;;;;;;2074406;28;20426;-79
2023/03/08 02:05:32;;;;;;;3.10;2.08;;;;;;;;;;2078343;28;20021;-79
2023/03/08 02:06:51;;;;;;;2.30;2.00;;;;;;;;;;2080437;28;20467;-80
2023/03/08 02:08:10;;;;;;;3.45;2.47;;;;;;;;;;2081471;28;20045;-79
2023/03/08 02:09:29;;;;;;;2.13;1.83;;;;;;;;;;2076870;28;20120;-81
2023/03/08 02:10:49;;;;;;;5.47;1.83;;;;;;;;;;2070917;28;20523;-80
2023/03/08 02:12:10;;;;;;;2.95;2.28;;;;;;;;;;2075068;28;20065;-79
2023/03/08 02:13:30;;;;;;;2.30;1.98;;;;;;;;;;2066999;28;20107;-78
2023/03/08 02:14:49;;;;;;;2.45;1.98;;;;;;;;;;2071693;28;20030;-80
2023/03/08 02:16:10;;;;;;;2.67;2.33;;;;;;;;;;2080124;28;20022;-79
2023/03/08 02:17:29;;;;;;;3.00;2.38;;;;;;;;;;2073303;28;20017;-79
2023/03/08 02:18:49;;;;;;;2.70;2.45;;;;;;;;;;2074128;28;20030;-80
2023/03/08 02:20:21;;;;;;;2.40;2.00;;;;;;;;;;2070419;28;20117;-80
2023/03/08 02:21:40;;;;;;;4.43;2.60;;;;;;;;;;2077265;28;20041;-80
2023/03/08 02:23:26;;;;;;;2.53;1.58;;;;;;;;;;2070683;28;20038;-80
2023/03/08 02:24:44;;;;;;;4.70;2.03;;;;;;;;;;2081422;28;20034;-79
2023/03/08 02:26:04;;;;;;;3.10;2.30;;;;;;;;;;2080029;28;20030;-79
2023/03/08 02:27:24;;;;;;;2.10;1.95;;;;;;;;;;2078521;28;20025;-79
2023/03/08 02:28:44;;;;;;;4.03;2.30;;;;;;;;;;2070813;28;21107;-80
2023/03/08 02:30:03;;;;;;;4.15;2.13;;;;;;;;;;2075656;28;20065;-79
2023/03/08 02:31:21;;;;;;;2.78;2.13;;;;;;;;;;2076313;28;20064;-79
2023/03/08 02:32:41;;;;;;;3.63;2.40;;;;;;;;;;2070884;28;20026;-80
2023/03/08 02:34:00;;;;;;;4.43;2.28;;;;;;;;;;2076853;28;20029;-81
2023/03/08 02:35:19;;;;;;;3.88;2.15;;;;;;;;;;2070604;28;20029;-80
2023/03/08 02:36:38;;;;;;;2.03;1.80;;;;;;;;;;2068142;28;20022;-79
2023/03/08 02:37:57;;;;;;;2.78;2.10;;;;;;;;;;2077196;28;20037;-80
2023/03/08 02:39:16;;;;;;;2.25;1.50;;;;;;;;;;2078299;28;20029;-80
2023/03/08 02:40:36;;;;;;;2.45;2.08;;;;;;;;;;2069019;28;20038;-79
2023/03/08 02:41:55;;;;;;;3.88;2.40;;;;;;;;;;2062904;28;20514;-79
2023/03/08 02:43:13;;;;;;;3.92;2.25;;;;;;;;;;2076483;28;20510;-81
2023/03/08 02:44:34;;;;;;;3.15;2.60;;;;;;;;;;2074732;28;20515;-79
2023/03/08 02:45:53;;;;;;;3.08;2.10;;;;;;;;;;2069222;28;20069;-79
2023/03/08 02:47:11;;;;;;;4.63;2.83;;;;;;;;;;2072183;28;20034;-79
2023/03/08 02:48:30;;;;;;;2.72;2.13;;;;;;;;;;2076898;28;20041;-79
2023/03/08 02:49:49;;;;;;;2.60;2.22;;;;;;;;;;2080022;28;20057;-80
2023/03/08 02:51:08;;;;;;;2.53;2.25;;;;;;;;;;2076235;28;20037;-80
2023/03/08 02:52:27;;;;;;;3.00;2.63;;;;;;;;;;2079351;28;20029;-79
2023/03/08 02:53:46;;;;;;;3.00;2.30;;;;;;;;;;2078542;28;20475;-80
2023/03/08 02:55:06;;;;;;;2.78;2.22;;;;;;;;;;2071788;28;20030;-79
2023/03/08 02:56:25;;;;;;;2.63;2.42;;;;;;;;;;2070428;28;20034;-79
2023/03/08 02:57:44;;;;;;;3.17;2.42;;;;;;;;;;2077787;28;20025;-79
2023/03/08 02:59:03;;;;;;;2.67;2.47;;;;;;;;;;2074522;28;20026;-79
2023/03/08 03:00:22;;;;;;;2.17;1.73;;;;;;;;;;2077526;28;20014;-78
2023/03/08 03:01:41;;;;;;;4.97;2.30;;;;;;;;;;2073850;28;20947;-79
2023/03/08 03:03:00;;;;;;;4.05;2.55;;;;;;;;;;2070156;28;20030;-79
2023/03/08 03:04:20;;;;;;;3.33;2.70;;;;;;;;;;2076588;28;20029;-80
2023/03/08 03:05:43;;;;;;;5.97;3.05;;;;;;;;;;2073245;28;20030;-80
2023/03/08 03:07:02;;;;;;;2.58;2.20;;;;;;;;;;2070596;28;20034;-80
2023/03/08 03:08:21;;;;;;;4.85;3.38;;;;;;;;;;2075369;28;20424;-79
2023/03/08 03:09:40;;;;;;;2.70;2.50;;;;;;;;;;2076280;28;20407;-79
2023/03/08 03:10:59;;;;;;;3.25;2.20;;;;;;;;;;2076181;28;20029;-79
2023/03/08 03:12:18;;;;;;;2.88;2.58;;;;;;;;;;2072206;28;20018;-79
2023/03/08 03:13:37;;;;;;;3.13;2.50;;;;;;;;;;2079076;28;20025;-79
2023/03/08 03:14:56;;;;;;;5.40;2.97;;;;;;;;;;2080581;28;20029;-79
2023/03/08 03:16:15;;;;;;;4.38;2.63;;;;;;;;;;2080611;28;20041;-79
2023/03/08 03:17:35;;;;;;;3.75;2.55;;;;;;;;;;2074034;28;20030;-80
2023/03/08 03:18:55;;;;;;;2.72;2.50;;;;;;;;;;2073817;28;20037;-78
2023/03/08 03:20:14;;;;;;;4.05;2.70;;;;;;;;;;2071407;28;20022;-80
2023/03/08 03:21:33;;;;;;;2.28;2.08;;;;;;;;;;2073134;28;20531;-79
2023/03/08 03:22:52;;;;;;;3.72;2.65;;;;;;;;;;2073990;28;20022;-80
2023/03/08 03:24:12;;;;;;;3.72;2.72;;;;;;;;;;2071844;28;20116;-79
2023/03/08 03:25:31;;;;;;;2.80;2.60;;;;;;;;;;2078936;28;20033;-79
2023/03/08 03:26:50;;;;;;;5.03;2.38;;;;;;;;;;2075360;28;20038;-80
2023/03/08 03:28:09;;;;;;;4.15;2.88;;;;;;;;;;2074012;28;20025;-80
2023/03/08 03:29:28;;;;;;;3.55;1.98;;;;;;;;;;2073603;28;20050;-79
2023/03/08 03:30:47;;;;;;;4.43;2.17;;;;;;;;;;2079921;28;20025;-79
2023/03/08 03:32:06;;;;;;;2.30;2.10;;;;;;;;;;2078541;28;20041;-81
2023/03/08 03:33:25;;;;;;;3.63;2.28;;;;;;;;;;2079446;28;20022;-80
2023/03/08 03:34:45;;;;;;;3.35;2.38;;;;;;;;;;2081355;28;20347;-80
2023/03/08 03:36:05;;;;;;;4.40;2.05;;;;;;;;;;2079724;28;20043;-80
2023/03/08 03:37:24;;;;;;;4.78;2.60;;;;;;;;;;2080617;28;20061;-79
2023/03/08 03:38:43;;;;;;;2.60;2.40;;;;;;;;;;2080927;28;20022;-80
2023/03/08 03:40:03;;;;;;;4.53;1.70;;;;;;;;;;2081463;28;20029;-80
2023/03/08 03:41:22;;;;;;;3.28;2.70;;;;;;;;;;2074645;28;20499;-80
2023/03/08 03:42:41;;;;;;;4.78;2.67;;;;;;;;;;2071806;28;20413;-79
2023/03/08 03:44:00;;;;;;;3.60;2.72;;;;;;;;;;2066481;28;20045;-79
2023/03/08 03:45:19;;;;;;;1.60;1.50;;;;;;;;;;2076912;28;20033;-79
2023/03/08 03:46:38;;;;;;;4.28;2.40;;;;;;;;;;2081095;28;20509;-79
2023/03/08 03:47:57;;;;;;;4.30;2.40;;;;;;;;;;2080448;28;20037;-79
2023/03/08 03:49:15;;;;;;;5.55;2.92;;;;;;;;;;2072651;28;20101;-79
2023/03/08 03:50:35;;;;;;;5.38;2.55;;;;;;;;;;2077513;28;20406;-79
2023/03/08 03:51:54;;;;;;;3.17;2.33;;;;;;;;;;2075970;28;20069;-79
2023/03/08 03:53:13;;;;;;;2.50;2.30;;;;;;;;;;2068670;28;20030;-80
2023/03/08 03:54:31;;;;;;;2.70;2.50;;;;;;;;;;2070995;28;20502;-79
2023/03/08 03:55:51;;;;;;;3.85;2.25;;;;;;;;;;2079005;28;20022;-79
2023/03/08 03:57:10;;;;;;;3.72;2.72;;;;;;;;;;2080825;28;20501;-80
2023/03/08 03:58:29;;;;;;;2.90;2.60;;;;;;;;;;2080016;28;20045;-79
2023/03/08 03:59:48;;;;;;;4.88;1.67;;;;;;;;;;2072948;28;20030;-81
2023/03/08 04:01:08;;;;;;;2.85;2.00;;;;;;;;;;2069074;28;20026;-79
2023/03/08 04:02:27;;;;;;;3.22;2.20;;;;;;;;;;2079889;28;20463;-80
2023/03/08 04:03:46;;;;;;;2.38;2.17;;;;;;;;;;2075307;28;20033;-80
2023/03/08 04:05:06;;;;;;;2.80;2.60;;;;;;;;;;2076282;28;20451;-80
2023/03/08 04:06:26;;;;;;;2.10;1.88;;;;;;;;;;2073120;28;20034;-80
2023/03/08 04:07:45;;;;;;;2.70;1.95;;;;;;;;;;2077297;28;20037;-79
2023/03/08 04:09:06;;;;;;;2.40;2.20;;;;;;;;;;2079871;28;20132;-79
2023/03/08 04:10:25;;;;;;;5.38;2.67;;;;;;;;;;2081368;28;20081;-79
2023/03/08 04:11:44;;;;;;;6.97;2.00;;;;;;;;;;2080268;28;20402;-79
2023/03/08 04:13:03;;;;;;;3.97;1.77;;;;;;;;;;2074597;28;20109;-79
2023/03/08 04:14:22;;;;;;;1.58;1.45;;;;;;;;;;2074870;28;20057;-79
2023/03/08 04:15:41;;;;;;;3.25;2.35;;;;;;;;;;2078177;28;20052;-80
2023/03/08 04:17:02;;;;;;;2.15;1.83;;;;;;;;;;2083624;28;20026;-79
2023/03/08 04:18:21;;;;;;;5.57;2.13;;;;;;;;;;2082200;28;20022;-80
2023/03/08 04:19:39;;;;;;;2.45;2.25;;;;;;;;;;2079483;28;20010;-79
2023/03/08 04:20:58;;;;;;;3.78;1.67;;;;;;;;;;2078555;28;20034;-81
2023/03/08 04:22:17;;;;;;;1.92;1.77;;;;;;;;;;2079271;28;20081;-81
2023/03/08 04:23:37;;;;;;;2.38;1.60;;;;;;;;;;2080724;28;20042;-79
2023/03/08 04:24:56;;;;;;;3.55;1.80;;;;;;;;;;2087550;28;20033;-82
2023/03/08 04:26:15;;;;;;;2.78;1.98;;;;;;;;;;2088899;28;20042;-79
2023/03/08 04:27:34;;;;;;;1.75;1.63;;;;;;;;;;2082818;28;20025;-79
2023/03/08 04:28:53;;;;;;;2.22;1.98;;;;;;;;;;2087888;28;20034;-80
2023/03/08 04:30:12;;;;;;;3.10;2.10;;;;;;;;;;2084030;28;20030;-81
2023/03/08 04:31:33;;;;;;;2.53;1.60;;;;;;;;;;2082966;28;20069;-80
2023/03/08 04:32:52;;;;;;;4.80;1.77;;;;;;;;;;2077940;28;20434;-82
2023/03/08 04:34:11;;;;;;;1.55;1.05;;;;;;;;;;2077154;28;20026;-81
2023/03/08 04:35:30;;;;;;;3.10;2.20;;;;;;;;;;2081477;28;20018;-80
2023/03/08 04:36:49;;;;;;;2.33;1.75;;;;;;;;;;2084157;28;20104;-80
2023/03/08 04:38:08;;;;;;;3.22;2.17;;;;;;;;;;2084199;28;20017;-80
2023/03/08 04:39:27;;;;;;;2.40;1.83;;;;;;;;;;2082375;28;20109;-80
2023/03/08 04:41:00;;;;;;;2.92;1.58;;;;;;;;;;2082843;28;20414;-80
2023/03/08 04:42:19;;;;;;;1.60;1.50;;;;;;;;;;2081858;28;20037;-80
2023/03/08 04:43:49;;;;;;;2.42;1.70;;;;;;;;;;2081311;28;20033;-80
2023/03/08 04:45:08;;;;;;;3.55;1.80;;;;;;;;;;2082823;28;20037;-80
2023/03/08 04:46:26;;;;;;;2.47;1.65;;;;;;;;;;2075575;28;20514;-80
2023/03/08 04:47:45;;;;;;;1.90;1.70;;;;;;;;;;2080022;28;20065;-80
2023/03/08 04:49:04;;;;;;;1.95;1.20;;;;;;;;;;2073717;28;20038;-81
2023/03/08 04:50:23;;;;;;;2.80;1.95;;;;;;;;;;2078333;28;20030;-79
2023/03/08 04:51:43;;;;;;;3.53;2.17;;;;;;;;;;2074264;28;20029;-79
2023/03/08 04:53:02;;;;;;;1.52;1.40;;;;;;;;;;2078381;28;20033;-79
2023/03/08 04:54:21;;;;;;;1.50;1.40;;;;;;;;;;2071413;28;20038;-80
2023/03/08 04:55:40;;;;;;;4.22;1.85;;;;;;;;;;2071695;28;20053;-79
2023/03/08 04:56:59;;;;;;;1.15;0.82;;;;;;;;;;2077092;28;20038;-80
2023/03/08 04:58:19;;;;;;;3.92;2.25;;;;;;;;;;2080952;28;20026;-80
2023/03/08 04:59:37;;;;;;;1.95;1.73;;;;;;;;;;2079336;28;20485;-80
2023/03/08 05:00:56;;;;;;;2.45;1.52;;;;;;;;;;2068059;28;20451;-79
2023/03/08 05:02:15;;;;;;;1.85;1.58;;;;;;;;;;2074328;28;21296;-80
2023/03/08 05:03:34;;;;;;;1.52;1.42;;;;;;;;;;2072830;28;20029;-79
2023/03/08 05:04:53;;;;;;;2.88;1.15;;;;;;;;;;2071800;28;20029;-80
2023/03/08 05:06:15;;;;;;;2.13;1.77;;;;;;;;;;2077880;28;20037;-79
2023/03/08 05:07:34;;;;;;;2.08;1.85;;;;;;;;;;2080095;28;20037;-80
2023/03/08 05:08:53;;;;;;;2.78;1.77;;;;;;;;;;2074624;28;20033;-80
2023/03/08 05:10:12;;;;;;;2.53;2.13;;;;;;;;;;2077224;28;20064;-79
2023/03/08 05:11:31;;;;;;;1.42;1.33;;;;;;;;;;2073127;28;20022;-79
2023/03/08 05:12:50;;;;;;;2.50;1.67;;;;;;;;;;2065405;28;20408;-79
2023/03/08 05:14:10;;;;;;;2.13;1.85;;;;;;;;;;2075238;28;20077;-79
2023/03/08 05:15:29;;;;;;;2.00;1.75;;;;;;;;;;2078280;28;20112;-79
2023/03/08 05:16:47;;;;;;;3.30;1.98;;;;;;;;;;2070040;28;20030;-80
2023/03/08 05:18:06;;;;;;;2.92;2.05;;;;;;;;;;2069542;28;20410;-79
2023/03/08 05:19:25;;;;;;;7.82;2.05;;;;;;;;;;2065665;28;20407;-81
2023/03/08 05:20:51;;;;;;;5.22;2.30;;;;;;;;;;2075579;28;20395;-79
2023/03/08 05:22:10;;;;;;;2.25;1.25;;;;;;;;;;2080019;28;20120;-80
2023/03/08 05:23:29;;;;;;;3.47;1.83;;;;;;;;;;2071434;28;20516;-78
2023/03/08 05:24:49;;;;;;;2.42;1.02;;;;;;;;;;2078327;28;20057;-79
2023/03/08 05:26:10;;;;;;;1.13;0.98;;;;;;;;;;2072727;28;20067;-79
2023/03/08 05:27:34;;;;;;;2.38;1.60;;;;;;;;;;2078567;28;20022;-79
2023/03/08 05:28:53;;;;;;;2.20;1.98;;;;;;;;;;2077881;28;20502;-81
2023/03/08 05:30:13;;;;;;;2.17;1.77;;;;;;;;;;2079457;28;20113;-79
2023/03/08 05:31:33;;;;;;;4.18;2.17;;;;;;;;;;2081431;28;20121;-77
2023/03/08 05:32:52;;;;;;;3.05;2.08;;;;;;;;;;2078118;28;20037;-78
2023/03/08 05:34:11;;;;;;;2.92;2.10;;;;;;;;;;2070748;28;20034;-78
2023/03/08 05:35:29;;;;;;;5.47;2.30;;;;;;;;;;2075350;28;20426;-78
2023/03/08 05:36:48;;;;;;;3.08;2.15;;;;;;;;;;2074313;28;20023;-78
2023/03/08 05:38:07;;;;;;;2.47;1.85;;;;;;;;;;2076689;28;20025;-79
2023/03/08 05:39:27;;;;;;;4.65;2.30;;;;;;;;;;2079526;28;20112;-78
2023/03/08 05:40:45;;;;;;;4.03;1.88;;;;;;;;;;2073217;28;20019;-78
2023/03/08 05:42:04;;;;;;;2.92;1.98;;;;;;;;;;2076082;28;20026;-78
2023/03/08 05:43:23;;;;;;;3.20;2.10;;;;;;;;;;2070538;28;20025;-78
2023/03/08 05:44:42;;;;;;;2.38;1.70;;;;;;;;;;2076351;28;20025;-79
2023/03/08 05:46:09;;;;;;;1.75;1.58;;;;;;;;;;2079740;28;20092;-78
2023/03/08 05:47:29;;;;;;;1.92;1.70;;;;;;;;;;2071982;28;20469;-78
2023/03/08 05:48:48;;;;;;;5.85;2.15;;;;;;;;;;2071675;28;20022;-79
2023/03/08 05:50:07;;;;;;;5.55;1.60;;;;;;;;;;2071455;28;20030;-78
2023/03/08 05:51:26;;;;;;;1.17;1.00;;;;;;;;;;2077309;28;20069;-78
2023/03/08 05:52:46;;;;;;;3.13;1.70;;;;;;;;;;2080451;28;20061;-79
2023/03/08 05:54:05;;;;;;;3.67;1.67;;;;;;;;;;2078813;28;20042;-77
2023/03/08 05:55:24;;;;;;;1.88;1.45;;;;;;;;;;2079196;28;20148;-78
2023/03/08 05:56:43;;;;;;;2.40;1.73;;;;;;;;;;2077774;28;20064;-79
2023/03/08 05:58:02;;;;;;;2.47;1.58;;;;;;;;;;2073455;28;20455;-79
2023/03/08 05:59:21;;;;;;;1.80;1.00;;;;;;;;;;2071557;28;20022;-79
2023/03/08 06:00:40;;;;;;;2.65;1.88;;;;;;;;;;2070413;28;20030;-78
2023/03/08 06:01:59;;;;;;;1.30;1.15;;;;;;;;;;2067628;28;20042;-78
2023/03/08 06:03:19;;;;;;;1.92;1.73;;;;;;;;;;2077131;28;20037;-80
2023/03/08 06:04:38;;;;;;;1.90;1.80;;;;;;;;;;2066229;28;21384;-79
2023/03/08 06:05:56;;;;;;;2.28;1.33;;;;;;;;;;2072700;28;20034;-79
2023/03/08 06:07:16;;;;;;;3.67;2.05;;;;;;;;;;2077382;28;20033;-79
2023/03/08 06:08:35;;;;;;;2.85;2.08;;;;;;;;;;2070425;28;20550;-79
2023/03/08 06:09:55;;;;;;;1.80;1.70;;;;;;;;;;2069816;28;20038;-78
2023/03/08 06:11:14;;;;;;;2.75;2.45;;;;;;;;;;2070192;28;20034;-79
2023/03/08 06:12:33;;;;;;;9.68;1.77;;;;;;;;;;2075552;28;20033;-80
2023/03/08 06:13:53;;;;;;;3.92;1.60;;;;;;;;;;2080152;28;20022;-79
2023/03/08 06:15:12;;;;;;;6.05;1.60;;;;;;;;;;2071476;28;20049;-79
2023/03/08 06:16:31;;;;;;;2.63;1.20;;;;;;;;;;2071690;28;20048;-79
2023/03/08 06:17:53;;;;;;;3.08;2.22;;;;;;;;;;2069207;28;20026;-81
2023/03/08 06:19:12;;;;;;;5.75;1.92;;;;;;;;;;2077605;28;20510;-80
2023/03/08 06:20:31;;;;;;;0.90;0.82;;;;;;;;;;2079129;28;20475;-79
2023/03/08 06:21:50;;;;;;;2.92;1.52;;;;;;;;;;2071133;28;20113;-79
2023/03/08 06:23:10;;;;;;;2.72;2.20;;;;;;;;;;2067573;28;20029;-77
2023/03/08 06:24:29;;;;;;;6.28;1.60;;;;;;;;;;2077400;28;20037;-77
2023/03/08 06:25:48;;;;;;;3.75;1.40;;;;;;;;;;2079545;28;20045;-78
2023/03/08 06:27:07;;;;;;;1.83;1.55;;;;;;;;;;2080995;28;20037;-78
2023/03/08 06:28:26;;;;;;;5.13;2.00;;;;;;;;;;2078681;28;20033;-79
2023/03/08 06:29:47;;;;;;;3.50;1.85;;;;;;;;;;2077529;28;20101;-78
2023/03/08 06:31:06;;;;;;;1.30;1.10;;;;;;;;;;2077191;28;20026;-80
2023/03/08 06:32:25;;;;;;;1.48;1.00;;;;;;;;;;2071291;28;20026;-77
2023/03/08 06:33:44;;;;;;;2.13;1.35;;;;;;;;;;2074199;28;20061;-79
2023/03/08 06:35:03;;;;;;;1.88;1.45;;;;;;;;;;2070361;28;20503;-78
2023/03/08 06:36:22;;;;;;;2.25;1.27;;;;;;;;;;2077486;28;20057;-78
2023/03/08 06:37:41;;;;;;;3.67;1.50;;;;;;;;;;2077906;28;20057;-77
2023/03/08 06:39:00;;;;;;;2.03;1.83;;;;;;;;;;2071401;28;20034;-78
2023/03/08 06:40:19;;;;;;;1.90;1.50;;;;;;;;;;2068325;28;20519;-78
2023/03/08 06:41:39;;;;;;;3.95;1.02;;;;;;;;;;2075883;28;20025;-79
2023/03/08 06:42:57;;;;;;;2.55;1.38;;;;;;;;;;2074853;28;20591;-78
2023/03/08 06:44:17;;;;;;;2.38;1.30;;;;;;;;;;2070121;28;20034;-78
2023/03/08 06:45:39;;;;;;;1.92;1.02;;;;;;;;;;2075725;28;20045;-79
2023/03/08 06:46:58;;;;;;;1.75;1.55;;;;;;;;;;2075564;28;20037;-76
2023/03/08 06:48:17;;;;;;;3.42;1.70;;;;;;;;;;2079534;28;20045;-77
2023/03/08 06:49:36;;;;;;;3.60;1.50;;;;;;;;;;2075075;28;20514;-77
2023/03/08 06:50:57;;;;;;;4.43;2.17;;;;;;;;;;2076024;28;20041;-77
2023/03/08 06:52:16;;;;;;;2.20;1.88;;;;;;;;;;2077407;28;20041;-79
2023/03/08 06:53:36;;;;;;;5.28;1.73;;;;;;;;;;2072055;28;20030;-78
2023/03/08 06:54:55;;;;;;;1.73;1.30;;;;;;;;;;2072706;28;20117;-77
2023/03/08 06:56:16;;;;;;;3.10;1.55;;;;;;;;;;2073154;28;20030;-78
2023/03/08 06:57:35;;;;;;;3.72;1.90;;;;;;;;;;2072895;28;20034;-78
2023/03/08 06:58:54;;;;;;;1.92;1.30;;;;;;;;;;2075966;28;20037;-77
2023/03/08 07:00:13;;;;;;;2.33;2.13;;;;;;;;;;2071995;28;20819;-77
2023/03/08 07:01:32;;;;;;;3.05;1.83;;;;;;;;;;2077473;28;20119;-77
2023/03/08 07:02:52;;;;;;;1.58;1.42;;;;;;;;;;2079721;28;20038;-76
2023/03/08 07:04:11;;;;;;;3.67;1.83;;;;;;;;;;2078196;28;20021;-77
2023/03/08 07:05:30;;;;;;;1.73;1.45;;;;;;;;;;2077954;28;20034;-77
2023/03/08 07:06:49;;;;;;;2.08;1.38;;;;;;;;;;2079238;28;20453;-78
2023/03/08 07:08:08;;;;;;;6.72;2.25;;;;;;;;;;2073933;28;20096;-78
2023/03/08 07:09:26;;;;;;;3.33;1.80;;;;;;;;;;2078554;28;20030;-76
2023/03/08 07:10:45;;;;;;;4.32;1.80;;;;;;;;;;2075465;28;20029;-76
2023/03/08 07:12:04;;;;;;;2.08;1.40;;;;;;;;;;2071361;28;20026;-76
2023/03/08 07:13:23;;;;;;;3.38;2.38;;;;;;;;;;2077179;28;20108;-76
2023/03/08 07:14:42;;;;;;;3.55;1.88;;;;;;;;;;2080285;28;20048;-76
2023/03/08 07:16:05;;;;;;;1.70;1.40;;;;;;;;;;2080604;28;20033;-76
2023/03/08 07:17:25;;;;;;;4.47;2.30;;;;;;;;;;2079581;28;20034;-76
2023/03/08 07:18:44;;;;;;;2.20;1.75;;;;;;;;;;2078988;28;20061;-76
2023/03/08 07:20:05;;;;;;;6.53;2.40;;;;;;;;;;2080223;28;20406;-77
2023/03/08 07:21:25;;;;;;;5.30;2.10;;;;;;;;;;2073228;28;20026;-78
2023/03/08 07:22:43;;;;;;;3.60;2.10;;;;;;;;;;2078309;28;20014;-76
2023/03/08 07:24:02;;;;;;;2.05;1.48;;;;;;;;;;2081489;28;20104;-76
2023/03/08 07:25:21;;;;;;;7.00;2.42;;;;;;;;;;2080889;28;20490;-77
2023/03/08 07:26:40;;;;;;;6.40;2.17;;;;;;;;;;2081949;28;20109;-76
2023/03/08 07:27:59;;;;;;;4.43;2.33;;;;;;;;;;2082069;28;20026;-76
2023/03/08 07:29:18;;;;;;;4.88;2.30;;;;;;;;;;2075710;28;20094;-77
2023/03/08 07:30:37;;;;;;;2.83;1.52;;;;;;;;;;2071684;28;20034;-76
2023/03/08 07:31:56;;;;;;;5.70;1.58;;;;;;;;;;2072944;28;20034;-77
2023/03/08 07:33:15;;;;;;;5.60;2.58;;;;;;;;;;2071440;28;20049;-76
2023/03/08 07:34:34;;;;;;;5.75;2.55;;;;;;;;;;2071797;28;20026;-76
2023/03/08 07:35:54;;;;;;;2.40;1.80;;;;;;;;;;2073838;28;20113;-76
2023/03/08 07:37:14;;;;;;;3.10;1.35;;;;;;;;;;2073875;28;20022;-77
2023/03/08 07:38:33;;;;;;;1.60;1.40;;;;;;;;;;2072351;28;20030;-76
2023/03/08 07:39:52;;;;;;;3.60;1.75;;;;;;;;;;2070410;28;20042;-77
2023/03/08 07:41:12;;;;;;;3.47;2.15;;;;;;;;;;2071776;28;20033;-77
2023/03/08 07:42:30;;;;;;;3.80;1.95;;;;;;;;;;2072531;28;20030;-77
2023/03/08 07:43:49;;;;;;;3.50;1.70;;;;;;;;;;2071231;28;20027;-77
2023/03/08 07:45:10;;;;;;;3.10;1.75;;;;;;;;;;2070310;28;20471;-77
2023/03/08 07:46:29;;;;;;;4.03;1.88;;;;;;;;;;2070104;28;20514;-76
2023/03/08 07:47:51;;;;;;;2.05;1.48;;;;;;;;;;2069389;28;20070;-77
2023/03/08 07:49:10;;;;;;;1.63;1.52;;;;;;;;;;2070757;28;20418;-76
2023/03/08 07:50:29;;;;;;;2.22;0.93;;;;;;;;;;2071067;28;20057;-78
2023/03/08 07:51:50;;;;;;;2.83;2.15;;;;;;;;;;2071210;28;20415;-78
2023/03/08 07:53:09;;;;;;;5.35;2.03;;;;;;;;;;2072167;28;20029;-77
2023/03/08 07:54:27;;;;;;;3.63;1.92;;;;;;;;;;2071994;28;20022;-77
2023/03/08 07:55:46;;;;;;;5.15;2.80;;;;;;;;;;2069367;28;20034;-77
2023/03/08 07:57:05;;;;;;;2.97;1.77;;;;;;;;;;2070863;28;20026;-77
2023/03/08 07:58:24;;;;;;;5.57;1.23;;;;;;;;;;2072693;28;20050;-77